createdAt,value
2017-03-18T00:00:04.083Z,99.99
2017-03-18T00:01:04.295Z,99.99
2017-03-18T00:02:04.279Z,99.99
2017-03-18T00:03:04.708Z,99.99
2017-03-18T00:04:04.257Z,99.99
2017-03-18T00:05:04.240Z,99.99
2017-03-18T00:06:04.748Z,99.99
2017-03-18T00:07:04.215Z,99.99
2017-03-18T00:08:04.207Z,99.99
2017-03-18T00:09:04.737Z,99.99
2017-03-18T00:10:04.175Z,99.99
2017-03-18T00:11:04.164Z,99.99
2017-03-18T00:12:04.568Z,99.99
2017-03-18T00:13:04.138Z,99.99
2017-03-18T00:14:04.130Z,99.99
2017-03-18T00:15:04.533Z,99.99
2017-03-18T00:16:04.098Z,99.99
2017-03-18T00:17:03.769Z,99.99
2017-03-18T00:18:04.029Z,99.99
2017-03-18T00:19:04.119Z,99.99
2017-03-18T00:20:04.814Z,99.99
2017-03-18T00:21:04.032Z,99.99
2017-03-18T00:22:04.059Z,99.99
2017-03-18T00:23:04.008Z,99.99
2017-03-18T00:24:03.998Z,99.99
2017-03-18T00:25:04.544Z,99.99
2017-03-18T00:26:03.967Z,99.99
2017-03-18T00:27:03.959Z,99.99
2017-03-18T00:28:04.284Z,99.99
2017-03-18T00:29:04.531Z,99.99
2017-03-18T00:30:03.913Z,99.99
2017-03-18T00:31:03.902Z,99.99
2017-03-18T00:32:04.409Z,99.99
2017-03-18T00:33:03.873Z,99.99
2017-03-18T00:34:03.863Z,99.99
2017-03-18T00:35:04.003Z,99.99
2017-03-18T00:36:03.839Z,99.99
2017-03-18T00:37:03.824Z,99.99
2017-03-18T00:38:04.379Z,99.99
2017-03-18T00:39:03.798Z,99.99
2017-03-18T00:40:03.788Z,99.99
2017-03-18T00:41:04.191Z,99.99
2017-03-18T00:42:03.758Z,99.99
2017-03-18T00:43:03.748Z,99.99
2017-03-18T00:44:03.856Z,99.99
2017-03-18T00:45:03.718Z,99.99
2017-03-18T00:46:03.704Z,99.99
2017-03-18T00:47:03.841Z,99.99
2017-03-18T00:48:03.683Z,99.99
2017-03-18T00:49:03.668Z,99.99
2017-03-18T00:50:04.153Z,99.99
2017-03-18T00:51:03.640Z,99.99
2017-03-18T00:52:03.627Z,99.99
2017-03-18T00:53:03.617Z,99.99
2017-03-18T00:54:03.601Z,99.99
2017-03-18T00:55:03.588Z,99.99
2017-03-18T00:56:03.577Z,99.99
2017-03-18T00:57:03.562Z,99.99
2017-03-18T00:58:03.550Z,99.99
2017-03-18T00:59:03.538Z,99.99
2017-03-18T01:00:03.526Z,99.99
2017-03-18T01:01:03.510Z,99.99
2017-03-18T01:02:03.496Z,99.99
2017-03-18T01:03:03.485Z,99.99
2017-03-18T01:04:03.473Z,99.99
2017-03-18T01:05:03.457Z,99.99
2017-03-18T01:06:03.446Z,99.99
2017-03-18T01:07:03.429Z,99.99
2017-03-18T01:08:03.417Z,99.99
2017-03-18T01:09:03.404Z,99.99
2017-03-18T01:10:03.392Z,99.99
2017-03-18T01:11:03.062Z,99.99
2017-03-18T01:12:03.364Z,99.53
2017-03-18T01:13:03.353Z,97.64
2017-03-18T01:14:03.337Z,98.58
2017-03-18T01:15:03.325Z,96.12
2017-03-18T01:16:03.310Z,95.65
2017-03-18T01:17:03.302Z,96.31
2017-03-18T01:18:03.286Z,95.26
2017-03-18T01:19:03.274Z,95.17
2017-03-18T01:20:03.260Z,94.51
2017-03-18T01:21:03.250Z,94.51
2017-03-18T01:22:03.232Z,93.75
2017-03-18T01:23:03.220Z,92.8
2017-03-18T01:24:03.205Z,92.61
2017-03-18T01:25:03.192Z,91.47
2017-03-18T01:26:03.179Z,89.96
2017-03-18T01:27:03.164Z,88.82
2017-03-18T01:28:03.152Z,88.3
2017-03-18T01:29:03.140Z,87.35
2017-03-18T01:30:03.126Z,86.64
2017-03-18T01:31:03.112Z,86.03
2017-03-18T01:32:02.789Z,83.85
2017-03-18T01:33:03.089Z,83.28
2017-03-18T01:34:03.072Z,82.43
2017-03-18T01:35:02.741Z,83.37
2017-03-18T01:36:03.047Z,83.37
2017-03-18T01:37:03.032Z,81.57
2017-03-18T01:38:03.017Z,79.87
2017-03-18T01:39:03.006Z,78.16
2017-03-18T01:40:02.989Z,75.51
2017-03-18T01:41:02.659Z,73.99
2017-03-18T01:42:02.985Z,73.24
2017-03-18T01:43:02.951Z,70.97
2017-03-18T01:44:02.936Z,69.45
2017-03-18T01:45:02.608Z,67.93
2017-03-18T01:46:02.910Z,66.6
2017-03-18T01:47:02.898Z,64.61
2017-03-18T01:48:02.882Z,63.76
2017-03-18T01:49:02.865Z,61.87
2017-03-18T01:50:02.856Z,60.83
2017-03-18T01:51:02.843Z,59.59
2017-03-18T01:52:02.511Z,59.12
2017-03-18T01:53:02.816Z,57.42
2017-03-18T01:54:02.801Z,56.27
2017-03-18T01:55:02.786Z,54.47
2017-03-18T01:56:02.797Z,53.34
2017-03-18T01:57:02.445Z,52.68
2017-03-18T01:58:02.745Z,52.68
2017-03-18T01:59:02.728Z,51.64
2017-03-18T02:00:02.719Z,50.49
2017-03-18T02:01:02.702Z,49.17
2017-03-18T02:02:02.689Z,47.18
2017-03-18T02:03:02.676Z,46.33
2017-03-18T02:04:02.662Z,45.1
2017-03-18T02:05:02.336Z,44.91
2017-03-18T02:06:02.320Z,44.34
2017-03-18T02:07:02.624Z,42.54
2017-03-18T02:08:02.609Z,41.5
2017-03-18T02:09:02.629Z,40.74
2017-03-18T02:10:02.295Z,39.22
2017-03-18T02:11:02.568Z,37.14
2017-03-18T02:12:02.557Z,37.61
2017-03-18T02:13:02.539Z,37.99
2017-03-18T02:14:02.527Z,37.99
2017-03-18T02:15:02.518Z,37.99
2017-03-18T02:16:02.501Z,41.02
2017-03-18T02:17:02.487Z,40.26
2017-03-18T02:18:02.471Z,39.03
2017-03-18T02:19:02.461Z,37.23
2017-03-18T02:20:02.452Z,36.1
2017-03-18T02:21:02.430Z,35.62
2017-03-18T02:22:02.414Z,34.58
2017-03-18T02:23:02.406Z,32.97
2017-03-18T02:24:02.389Z,31.83
2017-03-18T02:25:02.373Z,31.64
2017-03-18T02:26:02.355Z,30.51
2017-03-18T02:27:02.345Z,29.94
2017-03-18T02:28:02.331Z,28.04
2017-03-18T02:29:02.318Z,27.57
2017-03-18T02:30:02.303Z,26.05
2017-03-18T02:31:02.288Z,25.2
2017-03-18T02:32:02.272Z,22.92
2017-03-18T02:33:02.259Z,23.59
2017-03-18T02:34:02.257Z,23.78
2017-03-18T02:35:02.233Z,23.68
2017-03-18T02:36:02.217Z,23.59
2017-03-18T02:37:02.203Z,24.26
2017-03-18T02:38:02.191Z,23.02
2017-03-18T02:39:02.177Z,23.68
2017-03-18T02:40:02.160Z,23.97
2017-03-18T02:41:02.147Z,22.27
2017-03-18T02:42:02.134Z,21.22
2017-03-18T02:43:02.118Z,21.22
2017-03-18T02:44:02.109Z,23.59
2017-03-18T02:45:02.092Z,22.92
2017-03-18T02:46:02.077Z,21.6
2017-03-18T02:47:02.061Z,21.88
2017-03-18T02:48:02.051Z,22.64
2017-03-18T02:49:02.039Z,22.74
2017-03-18T02:50:02.020Z,22.92
2017-03-18T02:51:02.002Z,22.92
2017-03-18T02:52:01.991Z,22.17
2017-03-18T02:53:01.979Z,21.69
2017-03-18T02:54:01.967Z,20.56
2017-03-18T02:55:01.954Z,19.51
2017-03-18T02:56:01.934Z,18.48
2017-03-18T02:57:01.920Z,19.32
2017-03-18T02:58:01.906Z,20.92
2017-03-18T02:59:01.903Z,20.28
2017-03-18T03:00:01.883Z,18.76
2017-03-18T03:01:01.862Z,18.29
2017-03-18T03:02:01.851Z,20.08
2017-03-18T03:03:01.838Z,19.51
2017-03-18T03:04:01.825Z,18.09
2017-03-18T03:05:01.808Z,17.71
2017-03-18T03:06:01.796Z,18.18
2017-03-18T03:07:01.778Z,18.65
2017-03-18T03:08:01.772Z,17.71
2017-03-18T03:09:01.750Z,17.33
2017-03-18T03:10:01.736Z,17.24
2017-03-18T03:11:01.723Z,16.58
2017-03-18T03:12:01.708Z,16.47
2017-03-18T03:13:01.698Z,17.99
2017-03-18T03:14:01.681Z,18.65
2017-03-18T03:15:01.666Z,17.71
2017-03-18T03:16:01.651Z,16.47
2017-03-18T03:17:01.639Z,16.95
2017-03-18T03:18:01.626Z,16.28
2017-03-18T03:19:01.295Z,14.96
2017-03-18T03:20:01.593Z,13.92
2017-03-18T03:21:01.579Z,13.54
2017-03-18T03:22:01.569Z,12.97
2017-03-18T03:23:01.551Z,13.16
2017-03-18T03:24:01.535Z,13.26
2017-03-18T03:25:01.525Z,13.07
2017-03-18T03:26:01.505Z,12.59
2017-03-18T03:27:01.495Z,12.31
2017-03-18T03:28:01.487Z,12.02
2017-03-18T03:29:01.467Z,11.36
2017-03-18T03:30:01.452Z,10.6
2017-03-18T03:31:01.439Z,9.84
2017-03-18T03:32:01.431Z,11.93
2017-03-18T03:33:01.413Z,12.02
2017-03-18T03:34:01.393Z,13.26
2017-03-18T03:35:01.381Z,13.45
2017-03-18T03:36:01.366Z,13.35
2017-03-18T03:37:01.350Z,12.59
2017-03-18T03:38:01.339Z,10.79
2017-03-18T03:39:01.325Z,9.94
2017-03-18T03:40:01.314Z,8.99
2017-03-18T03:41:00.978Z,7.1
2017-03-18T03:42:01.279Z,5.77
2017-03-18T03:43:01.270Z,5.77
2017-03-18T03:44:01.253Z,4.73
2017-03-18T03:45:01.238Z,3.69
2017-03-18T03:46:01.223Z,3.41
2017-03-18T03:47:01.205Z,3.5
2017-03-18T03:48:01.194Z,3.22
2017-03-18T03:49:01.180Z,2.65
2017-03-18T03:50:01.168Z,2.36
2017-03-18T03:51:01.150Z,2.37
2017-03-18T03:52:01.137Z,1.7
2017-03-18T03:53:01.130Z,1.61
2017-03-18T03:54:00.794Z,1.04
2017-03-18T03:55:01.097Z,0.76
2017-03-18T03:56:00.767Z,0.57
2017-03-18T03:57:01.069Z,0
2017-03-18T03:58:01.051Z,0
2017-03-18T03:59:01.037Z,0
2017-03-18T04:00:01.027Z,0
2017-03-18T04:01:01.007Z,0
2017-03-18T04:02:00.996Z,0
2017-03-18T04:03:00.984Z,0
2017-03-18T04:04:00.969Z,0
2017-03-18T04:05:00.954Z,0
2017-03-18T04:06:00.935Z,0
2017-03-18T04:07:00.927Z,0
2017-03-18T04:08:00.910Z,0
2017-03-18T04:09:00.895Z,0
2017-03-18T04:10:00.882Z,0
2017-03-18T04:11:00.866Z,0
2017-03-18T04:12:00.852Z,0
2017-03-18T04:13:00.834Z,0
2017-03-18T04:14:00.827Z,0
2017-03-18T04:15:00.812Z,0
2017-03-18T04:16:00.800Z,0
2017-03-18T04:17:00.784Z,0
2017-03-18T04:18:00.767Z,0
2017-03-18T04:19:00.755Z,0
2017-03-18T04:20:00.738Z,0
2017-03-18T04:21:00.726Z,0
2017-03-18T04:22:00.712Z,0
2017-03-18T04:23:00.697Z,0
2017-03-18T04:24:00.681Z,0
2017-03-18T04:25:00.667Z,0
2017-03-18T04:26:00.651Z,0
2017-03-18T04:27:00.640Z,0
2017-03-18T04:28:00.624Z,0
2017-03-18T04:29:00.610Z,0
2017-03-18T04:30:00.598Z,0
2017-03-18T04:31:00.586Z,0
2017-03-18T04:32:00.569Z,0
2017-03-18T04:33:00.555Z,0
2017-03-18T04:34:00.541Z,0
2017-03-18T04:35:00.527Z,0
2017-03-18T04:36:00.202Z,0
2017-03-18T04:37:00.181Z,0
2017-03-18T04:38:00.168Z,0
2017-03-18T04:39:00.471Z,0
2017-03-18T04:40:00.456Z,0
2017-03-18T04:41:00.441Z,0
2017-03-18T04:42:00.425Z,0
2017-03-18T04:43:00.416Z,0
2017-03-18T04:44:00.399Z,0
2017-03-18T04:45:00.386Z,0
2017-03-18T04:46:00.372Z,0
2017-03-18T04:47:00.359Z,0
2017-03-18T04:48:00.343Z,0
2017-03-18T04:49:00.330Z,0
2017-03-18T04:50:00.339Z,0
2017-03-18T04:51:00.296Z,0
2017-03-18T04:52:00.281Z,0
2017-03-18T04:53:00.271Z,0
2017-03-18T04:54:00.256Z,0
2017-03-18T04:55:00.242Z,0
2017-03-18T04:56:00.231Z,0
2017-03-18T04:57:00.212Z,0
2017-03-18T04:58:00.200Z,0
2017-03-18T04:59:00.188Z,0
2017-03-18T05:00:00.176Z,0
2017-03-18T05:01:00.158Z,0
2017-03-18T05:02:00.147Z,0
2017-03-18T05:03:00.133Z,0
2017-03-18T05:04:00.119Z,0
2017-03-18T05:05:00.106Z,0
2017-03-18T05:06:00.088Z,0
2017-03-18T05:07:00.077Z,0
2017-03-18T05:08:00.069Z,0
2017-03-18T05:09:00.051Z,0
2017-03-18T05:10:00.036Z,0
2017-03-18T05:11:00.021Z,0
2017-03-18T05:12:00.008Z,0
2017-03-18T05:12:59.994Z,0
2017-03-18T05:13:59.988Z,0
2017-03-18T05:14:59.968Z,0
2017-03-18T05:15:59.946Z,0
2017-03-18T05:16:59.932Z,0
2017-03-18T05:17:59.924Z,0
2017-03-18T05:18:59.909Z,0
2017-03-18T05:19:59.893Z,0
2017-03-18T05:20:59.878Z,0
2017-03-18T05:21:59.872Z,0
2017-03-18T05:22:59.852Z,0
2017-03-18T05:23:59.841Z,0
2017-03-18T05:24:59.826Z,0
2017-03-18T05:25:59.809Z,0
2017-03-18T05:26:59.794Z,0
2017-03-18T05:27:59.786Z,0
2017-03-18T05:28:59.771Z,0
2017-03-18T05:29:59.758Z,0
2017-03-18T05:30:59.739Z,0
2017-03-18T05:31:59.726Z,0
2017-03-18T05:32:59.713Z,0
2017-03-18T05:33:59.700Z,0
2017-03-18T05:34:59.685Z,0
2017-03-18T05:35:59.355Z,0
2017-03-18T05:36:59.657Z,0
2017-03-18T05:37:59.642Z,0
2017-03-18T05:38:59.630Z,0
2017-03-18T05:39:59.615Z,0
2017-03-18T05:40:59.596Z,0
2017-03-18T05:41:59.586Z,0
2017-03-18T05:42:59.262Z,0
2017-03-18T05:43:59.562Z,0
2017-03-18T05:44:59.547Z,0
2017-03-18T05:45:59.529Z,0
2017-03-18T05:46:59.202Z,0
2017-03-18T05:47:59.507Z,0
2017-03-18T05:48:59.491Z,0
2017-03-18T05:49:59.475Z,0
2017-03-18T05:50:59.459Z,0
2017-03-18T05:51:59.444Z,0
2017-03-18T05:52:59.436Z,0
2017-03-18T05:53:59.420Z,0
2017-03-18T05:54:59.426Z,0
2017-03-18T05:55:59.395Z,0
2017-03-18T05:56:59.380Z,0
2017-03-18T05:57:59.366Z,0
2017-03-18T05:58:59.352Z,0
2017-03-18T05:59:59.336Z,0
2017-03-18T06:00:59.323Z,0
2017-03-18T06:01:59.308Z,0
2017-03-18T06:02:59.293Z,0
2017-03-18T06:03:59.284Z,0
2017-03-18T06:04:59.268Z,0
2017-03-18T06:05:59.252Z,0
2017-03-18T06:06:59.278Z,0
2017-03-18T06:07:59.227Z,0
2017-03-18T06:08:59.213Z,0
2017-03-18T06:09:58.892Z,0
2017-03-18T06:10:59.184Z,0
2017-03-18T06:11:59.172Z,0
2017-03-18T06:12:59.155Z,0
2017-03-18T06:13:59.143Z,0
2017-03-18T06:14:59.133Z,0
2017-03-18T06:15:58.808Z,0
2017-03-18T06:16:59.107Z,0
2017-03-18T06:17:59.087Z,0
2017-03-18T06:18:59.083Z,0
2017-03-18T06:19:58.745Z,0
2017-03-18T06:20:59.043Z,0
2017-03-18T06:21:59.033Z,0
2017-03-18T06:22:59.018Z,0
2017-03-18T06:23:58.690Z,0
2017-03-18T06:24:58.990Z,0
2017-03-18T06:25:58.976Z,0
2017-03-18T06:26:58.963Z,0
2017-03-18T06:27:58.954Z,0
2017-03-18T06:28:58.936Z,0
2017-03-18T06:29:58.922Z,0
2017-03-18T06:30:58.906Z,0
2017-03-18T06:31:58.890Z,0
2017-03-18T06:32:58.574Z,0
2017-03-18T06:33:58.869Z,0
2017-03-18T06:34:58.854Z,0
2017-03-18T06:35:58.838Z,0
2017-03-18T06:36:58.827Z,0
2017-03-18T06:37:58.503Z,0
2017-03-18T06:38:58.796Z,0
2017-03-18T06:39:58.783Z,0
2017-03-18T06:40:58.772Z,0
2017-03-18T06:41:58.756Z,0
2017-03-18T06:42:58.741Z,0
2017-03-18T06:43:58.728Z,0
2017-03-18T06:44:58.400Z,0
2017-03-18T06:45:58.699Z,0
2017-03-18T06:46:58.689Z,0
2017-03-18T06:47:58.672Z,0
2017-03-18T06:48:58.658Z,0
2017-03-18T06:49:58.643Z,0
2017-03-18T06:50:58.629Z,0
2017-03-18T06:51:58.619Z,0
2017-03-18T06:52:58.600Z,0
2017-03-18T06:53:58.590Z,0
2017-03-18T06:54:58.577Z,0
2017-03-18T06:55:58.563Z,0
2017-03-18T06:56:58.549Z,0
2017-03-18T06:57:58.531Z,0
2017-03-18T06:58:58.203Z,0
2017-03-18T06:59:58.507Z,0
2017-03-18T07:00:58.496Z,0
2017-03-18T07:01:58.478Z,0
2017-03-18T07:02:58.464Z,0
2017-03-18T07:03:58.444Z,0
2017-03-18T07:04:58.437Z,0
2017-03-18T07:05:58.419Z,0
2017-03-18T07:06:58.409Z,0
2017-03-18T07:07:58.398Z,0
2017-03-18T07:08:58.063Z,0
2017-03-18T07:09:58.366Z,0
2017-03-18T07:10:58.412Z,0
2017-03-18T07:11:58.338Z,0
2017-03-18T07:12:58.325Z,0
2017-03-18T07:13:58.311Z,0
2017-03-18T07:14:58.300Z,0
2017-03-18T07:15:58.281Z,0
2017-03-18T07:16:58.270Z,0
2017-03-18T07:17:58.255Z,0
2017-03-18T07:18:58.243Z,0
2017-03-18T07:19:58.227Z,0
2017-03-18T07:20:58.476Z,0
2017-03-18T07:21:58.198Z,0
2017-03-18T07:22:58.186Z,0
2017-03-18T07:23:58.169Z,0
2017-03-18T07:24:58.161Z,0
2017-03-18T07:25:58.299Z,0
2017-03-18T07:26:58.127Z,0
2017-03-18T07:27:58.117Z,0
2017-03-18T07:28:57.785Z,0
2017-03-18T07:29:58.091Z,0
2017-03-18T07:30:58.073Z,0
2017-03-18T07:31:58.061Z,0
2017-03-18T07:32:58.048Z,0
2017-03-18T07:33:58.042Z,0
2017-03-18T07:34:58.020Z,0
2017-03-18T07:35:58.003Z,0
2017-03-18T07:36:57.987Z,0
2017-03-18T07:37:57.975Z,0
2017-03-18T07:38:57.961Z,0
2017-03-18T07:39:57.950Z,0
2017-03-18T07:40:57.934Z,0
2017-03-18T07:41:57.922Z,0
2017-03-18T07:42:57.908Z,0
2017-03-18T07:43:57.892Z,0
2017-03-18T07:44:57.880Z,0
2017-03-18T07:45:57.865Z,0
2017-03-18T07:46:57.854Z,0
2017-03-18T07:47:57.849Z,0
2017-03-18T07:48:57.523Z,0
2017-03-18T07:49:57.499Z,0
2017-03-18T07:50:57.799Z,0
2017-03-18T07:51:57.785Z,0
2017-03-18T07:52:57.773Z,0
2017-03-18T07:53:57.756Z,0
2017-03-18T07:54:57.744Z,0
2017-03-18T07:55:57.730Z,0
2017-03-18T07:56:57.714Z,0
2017-03-18T07:57:57.702Z,0
2017-03-18T07:58:57.691Z,0
2017-03-18T07:59:57.673Z,0
2017-03-18T08:00:57.658Z,0
2017-03-18T08:01:57.645Z,0
2017-03-18T08:02:57.636Z,0
2017-03-18T08:03:57.620Z,0
2017-03-18T08:04:57.607Z,0
2017-03-18T08:05:57.592Z,0
2017-03-18T08:06:57.581Z,0
2017-03-18T08:07:57.567Z,0
2017-03-18T08:08:57.551Z,0
2017-03-18T08:09:57.538Z,0
2017-03-18T08:10:57.525Z,0
2017-03-18T08:11:57.197Z,0
2017-03-18T08:12:57.499Z,0
2017-03-18T08:13:57.484Z,0
2017-03-18T08:14:57.469Z,0
2017-03-18T08:15:57.454Z,0
2017-03-18T08:16:57.445Z,0
2017-03-18T08:17:57.432Z,0
2017-03-18T08:18:57.417Z,0
2017-03-18T08:19:57.403Z,0
2017-03-18T08:20:57.074Z,0
2017-03-18T08:21:57.375Z,0
2017-03-18T08:22:57.049Z,0
2017-03-18T08:23:57.349Z,0
2017-03-18T08:24:57.338Z,0
2017-03-18T08:25:57.321Z,0
2017-03-18T08:26:57.306Z,0
2017-03-18T08:27:57.294Z,0
2017-03-18T08:28:57.282Z,0
2017-03-18T08:29:57.269Z,0
2017-03-18T08:30:57.251Z,0
2017-03-18T08:31:57.243Z,0
2017-03-18T08:32:57.232Z,0
2017-03-18T08:33:57.216Z,0
2017-03-18T08:34:56.889Z,0
2017-03-18T08:35:57.189Z,0
2017-03-18T08:36:57.177Z,0
2017-03-18T08:37:57.162Z,0
2017-03-18T08:38:57.148Z,0
2017-03-18T08:39:57.138Z,0
2017-03-18T08:40:57.118Z,0
2017-03-18T08:41:57.111Z,0
2017-03-18T08:42:57.107Z,0
2017-03-18T08:43:57.079Z,0
2017-03-18T08:44:57.069Z,0
2017-03-18T08:45:57.052Z,0
2017-03-18T08:46:57.041Z,0
2017-03-18T08:47:57.027Z,0
2017-03-18T08:48:57.016Z,0
2017-03-18T08:49:57.001Z,0
2017-03-18T08:50:56.986Z,0
2017-03-18T08:51:56.973Z,0
2017-03-18T08:52:56.962Z,0
2017-03-18T08:53:56.948Z,0
2017-03-18T08:54:56.937Z,0
2017-03-18T08:55:56.603Z,0
2017-03-18T08:56:56.907Z,0
2017-03-18T08:57:56.897Z,0
2017-03-18T08:58:56.883Z,0
2017-03-18T08:59:56.867Z,0
2017-03-18T09:00:56.539Z,0
2017-03-18T09:01:56.839Z,0
2017-03-18T09:02:56.832Z,0
2017-03-18T09:03:56.817Z,0
2017-03-18T09:04:56.803Z,0
2017-03-18T09:05:56.789Z,0
2017-03-18T09:06:56.774Z,0
2017-03-18T09:07:56.765Z,0
2017-03-18T09:08:56.752Z,0
2017-03-18T09:09:56.740Z,0.66
2017-03-18T09:10:56.757Z,0.28
2017-03-18T09:11:56.710Z,1.7
2017-03-18T09:12:56.850Z,1.51
2017-03-18T09:13:56.689Z,2.66
2017-03-18T09:14:56.675Z,4.46
2017-03-18T09:15:56.658Z,4.93
2017-03-18T09:16:56.648Z,5.12
2017-03-18T09:17:56.632Z,4.17
2017-03-18T09:18:56.624Z,2.94
2017-03-18T09:19:56.613Z,3.89
2017-03-18T09:20:56.595Z,2.94
2017-03-18T09:21:56.271Z,3.5
2017-03-18T09:22:56.572Z,3.6
2017-03-18T09:23:56.560Z,2.27
2017-03-18T09:24:56.549Z,3.5
2017-03-18T09:25:56.218Z,3.03
2017-03-18T09:26:56.522Z,1.99
2017-03-18T09:27:56.508Z,1.23
2017-03-18T09:28:56.182Z,0.85
2017-03-18T09:29:56.484Z,2.08
2017-03-18T09:30:56.479Z,4.74
2017-03-18T09:31:56.143Z,4.36
2017-03-18T09:32:56.448Z,3.7
2017-03-18T09:33:56.432Z,1.89
2017-03-18T09:34:56.420Z,3.5
2017-03-18T09:35:56.408Z,5.31
2017-03-18T09:36:56.395Z,4.08
2017-03-18T09:37:56.383Z,5.78
2017-03-18T09:38:56.371Z,4.08
2017-03-18T09:39:56.041Z,3.41
2017-03-18T09:40:56.347Z,5.78
2017-03-18T09:41:56.328Z,4.83
2017-03-18T09:42:56.319Z,4.64
2017-03-18T09:43:56.306Z,2.66
2017-03-18T09:44:56.291Z,1.51
2017-03-18T09:45:56.282Z,1.89
2017-03-18T09:46:56.265Z,0.38
2017-03-18T09:47:56.254Z,0
2017-03-18T09:48:56.244Z,0
2017-03-18T09:49:56.234Z,0
2017-03-18T09:50:56.218Z,0
2017-03-18T09:51:56.200Z,0.57
2017-03-18T09:52:56.189Z,1.23
2017-03-18T09:53:56.178Z,0.19
2017-03-18T09:54:56.170Z,0
2017-03-18T09:55:56.149Z,0
2017-03-18T09:56:56.137Z,3.89
2017-03-18T09:57:56.124Z,3.41
2017-03-18T09:58:56.114Z,1.8
2017-03-18T09:59:56.103Z,1.51
2017-03-18T10:00:56.087Z,0.28
2017-03-18T10:01:56.079Z,0
2017-03-18T10:02:56.064Z,0
2017-03-18T10:03:56.050Z,1.61
2017-03-18T10:04:56.036Z,2.47
2017-03-18T10:05:56.051Z,1.04
2017-03-18T10:06:56.011Z,2.27
2017-03-18T10:07:56.002Z,1.61
2017-03-18T10:08:55.988Z,1.04
2017-03-18T10:09:55.980Z,0.28
2017-03-18T10:10:55.962Z,0
2017-03-18T10:11:55.948Z,0
2017-03-18T10:12:55.938Z,0
2017-03-18T10:13:55.924Z,0.76
2017-03-18T10:14:55.910Z,0.47
2017-03-18T10:15:55.902Z,0
2017-03-18T10:16:55.883Z,1.04
2017-03-18T10:17:55.872Z,3.13
2017-03-18T10:18:55.551Z,2.08
2017-03-18T10:19:55.850Z,1.7
2017-03-18T10:20:55.833Z,0.09
2017-03-18T10:21:55.823Z,0.95
2017-03-18T10:22:55.810Z,0
2017-03-18T10:23:55.802Z,3.13
2017-03-18T10:24:55.790Z,1.8
2017-03-18T10:25:55.778Z,0.38
2017-03-18T10:26:55.758Z,0.57
2017-03-18T10:27:55.751Z,0
2017-03-18T10:28:55.736Z,0
2017-03-18T10:29:55.724Z,0
2017-03-18T10:30:55.399Z,0
2017-03-18T10:31:55.696Z,0
2017-03-18T10:32:55.690Z,0
2017-03-18T10:33:55.359Z,0.28
2017-03-18T10:34:55.343Z,0.95
2017-03-18T10:35:55.333Z,0.19
2017-03-18T10:36:55.321Z,0
2017-03-18T10:37:55.621Z,1.23
2017-03-18T10:38:55.299Z,1.51
2017-03-18T10:39:55.283Z,0
2017-03-18T10:40:55.266Z,0
2017-03-18T10:41:55.258Z,0
2017-03-18T10:42:55.561Z,0
2017-03-18T10:43:55.548Z,0
2017-03-18T10:44:55.534Z,0
2017-03-18T10:45:55.522Z,0
2017-03-18T10:46:55.508Z,0
2017-03-18T10:47:55.498Z,0
2017-03-18T10:48:55.489Z,0
2017-03-18T10:49:55.474Z,0
2017-03-18T10:50:55.461Z,0
2017-03-18T10:51:55.447Z,0
2017-03-18T10:52:55.436Z,0
2017-03-18T10:53:55.425Z,0
2017-03-18T10:54:55.411Z,0
2017-03-18T10:55:55.397Z,0
2017-03-18T10:56:55.392Z,0
2017-03-18T10:57:55.374Z,0
2017-03-18T10:58:55.364Z,0
2017-03-18T10:59:55.347Z,0
2017-03-18T11:00:55.365Z,0
2017-03-18T11:01:55.325Z,0
2017-03-18T11:02:55.308Z,0
